sensor_id;sensor_type;location;lat;lon;timestamp;P1;P2;P0
80639;PMS5003;69992;60.170;24.692;2024-01-15T00:00:45;53;44;
80639;PMS5003;69992;60.170;24.692;2024-01-15T00:03:11;58;51;
80639;PMS5003;69992;60.170;24.692;2024-01-15T00:05:39;50;44;
80639;PMS5003;69992;60.170;24.692;2024-01-15T00:08:02;54;46;
80639;PMS5003;69992;60.170;24.692;2024-01-15T00:10:27;52;46;
80639;PMS5003;69992;60.170;24.692;2024-01-15T00:12:53;50;47;
80639;PMS5003;69992;60.170;24.692;2024-01-15T00:15:18;64;49;
80639;PMS5003;69992;60.170;24.692;2024-01-15T00:17:47;50;43;
80639;PMS5003;69992;60.170;24.692;2024-01-15T00:20:09;52;47;
80639;PMS5003;69992;60.170;24.692;2024-01-15T00:22:35;55;46;
80639;PMS5003;69992;60.170;24.692;2024-01-15T00:25:00;60;50;
80639;PMS5003;69992;60.170;24.692;2024-01-15T00:27:26;54;47;
80639;PMS5003;69992;60.170;24.692;2024-01-15T00:29:51;45;41;
80639;PMS5003;69992;60.170;24.692;2024-01-15T00:32:17;51;40;
80639;PMS5003;69992;60.170;24.692;2024-01-15T00:34:43;55;46;
80639;PMS5003;69992;60.170;24.692;2024-01-15T00:37:08;50;49;
80639;PMS5003;69992;60.170;24.692;2024-01-15T00:39:37;47;41;
80639;PMS5003;69992;60.170;24.692;2024-01-15T00:41:59;55;47;
80639;PMS5003;69992;60.170;24.692;2024-01-15T00:44:24;55;44;
80639;PMS5003;69992;60.170;24.692;2024-01-15T00:46:50;54;45;
80639;PMS5003;69992;60.170;24.692;2024-01-15T00:49:15;51;44;
80639;PMS5003;69992;60.170;24.692;2024-01-15T00:51:40;51;42;
80639;PMS5003;69992;60.170;24.692;2024-01-15T00:54:05;51;45;
80639;PMS5003;69992;60.170;24.692;2024-01-15T00:56:31;54;45;
80639;PMS5003;69992;60.170;24.692;2024-01-15T00:58:57;53;42;
80639;PMS5003;69992;60.170;24.692;2024-01-15T01:01:22;49;41;
80639;PMS5003;69992;60.170;24.692;2024-01-15T01:03:48;46;42;
80639;PMS5003;69992;60.170;24.692;2024-01-15T01:06:13;54;45;
80639;PMS5003;69992;60.170;24.692;2024-01-15T01:08:39;45;38;
80639;PMS5003;69992;60.170;24.692;2024-01-15T01:11:04;78;64;
80639;PMS5003;69992;60.170;24.692;2024-01-15T01:13:30;62;51;
80639;PMS5003;69992;60.170;24.692;2024-01-15T01:15:56;60;45;
80639;PMS5003;69992;60.170;24.692;2024-01-15T01:18:21;68;59;
80639;PMS5003;69992;60.170;24.692;2024-01-15T01:20:47;54;39;
80639;PMS5003;69992;60.170;24.692;2024-01-15T01:23:12;56;48;
80639;PMS5003;69992;60.170;24.692;2024-01-15T01:25:37;55;42;
80639;PMS5003;69992;60.170;24.692;2024-01-15T01:28:04;48;43;
80639;PMS5003;69992;60.170;24.692;2024-01-15T01:30:29;56;47;
80639;PMS5003;69992;60.170;24.692;2024-01-15T01:32:54;50;42;
80639;PMS5003;69992;60.170;24.692;2024-01-15T01:35:20;60;51;
80639;PMS5003;69992;60.170;24.692;2024-01-15T01:37:45;54;45;
80639;PMS5003;69992;60.170;24.692;2024-01-15T01:40:11;47;39;
80639;PMS5003;69992;60.170;24.692;2024-01-15T01:42:35;51;46;
80639;PMS5003;69992;60.170;24.692;2024-01-15T01:45:01;51;42;
80639;PMS5003;69992;60.170;24.692;2024-01-15T01:47:26;50;46;
80639;PMS5003;69992;60.170;24.692;2024-01-15T01:49:52;51;41;
80639;PMS5003;69992;60.170;24.692;2024-01-15T01:52:20;55;50;
80639;PMS5003;69992;60.170;24.692;2024-01-15T01:54:43;72;65;
80639;PMS5003;69992;60.170;24.692;2024-01-15T01:57:08;39;37;
80639;PMS5003;69992;60.170;24.692;2024-01-15T01:59:34;36;34;
80639;PMS5003;69992;60.170;24.692;2024-01-15T02:01:59;43;38;
80639;PMS5003;69992;60.170;24.692;2024-01-15T02:04:24;37;36;
80639;PMS5003;69992;60.170;24.692;2024-01-15T02:06:50;55;40;
80639;PMS5003;69992;60.170;24.692;2024-01-15T02:09:15;34;33;
80639;PMS5003;69992;60.170;24.692;2024-01-15T02:11:41;45;37;
80639;PMS5003;69992;60.170;24.692;2024-01-15T02:14:07;51;39;
80639;PMS5003;69992;60.170;24.692;2024-01-15T02:16:32;37;33;
80639;PMS5003;69992;60.170;24.692;2024-01-15T02:18:58;43;35;
80639;PMS5003;69992;60.170;24.692;2024-01-15T02:21:24;47;40;
80639;PMS5003;69992;60.170;24.692;2024-01-15T02:23:49;41;37;
80639;PMS5003;69992;60.170;24.692;2024-01-15T02:26:14;40;37;
80639;PMS5003;69992;60.170;24.692;2024-01-15T02:28:40;42;37;
80639;PMS5003;69992;60.170;24.692;2024-01-15T02:31:05;45;34;
80639;PMS5003;69992;60.170;24.692;2024-01-15T02:33:31;45;37;
80639;PMS5003;69992;60.170;24.692;2024-01-15T02:35:57;45;36;
80639;PMS5003;69992;60.170;24.692;2024-01-15T02:38:22;40;33;
80639;PMS5003;69992;60.170;24.692;2024-01-15T02:40:49;31;28;
80639;PMS5003;69992;60.170;24.692;2024-01-15T02:43:14;42;35;
80639;PMS5003;69992;60.170;24.692;2024-01-15T02:45:39;56;41;
80639;PMS5003;69992;60.170;24.692;2024-01-15T02:48:05;51;41;
80639;PMS5003;69992;60.170;24.692;2024-01-15T02:50:30;39;36;
80639;PMS5003;69992;60.170;24.692;2024-01-15T02:52:55;40;37;
80639;PMS5003;69992;60.170;24.692;2024-01-15T02:55:20;50;37;
80639;PMS5003;69992;60.170;24.692;2024-01-15T02:57:45;37;32;
80639;PMS5003;69992;60.170;24.692;2024-01-15T03:00:11;42;32;
80639;PMS5003;69992;60.170;24.692;2024-01-15T03:02:36;47;38;
80639;PMS5003;69992;60.170;24.692;2024-01-15T03:05:01;34;32;
80639;PMS5003;69992;60.170;24.692;2024-01-15T03:07:28;39;34;
80639;PMS5003;69992;60.170;24.692;2024-01-15T03:09:52;36;33;
80639;PMS5003;69992;60.170;24.692;2024-01-15T03:12:17;40;36;
80639;PMS5003;69992;60.170;24.692;2024-01-15T03:14:43;41;36;
80639;PMS5003;69992;60.170;24.692;2024-01-15T03:17:08;45;37;
80639;PMS5003;69992;60.170;24.692;2024-01-15T03:19:34;33;31;
80639;PMS5003;69992;60.170;24.692;2024-01-15T03:21:59;42;36;
80639;PMS5003;69992;60.170;24.692;2024-01-15T03:24:24;42;34;
80639;PMS5003;69992;60.170;24.692;2024-01-15T03:26:49;47;34;
80639;PMS5003;69992;60.170;24.692;2024-01-15T03:29:15;38;32;
80639;PMS5003;69992;60.170;24.692;2024-01-15T03:31:40;40;34;
80639;PMS5003;69992;60.170;24.692;2024-01-15T03:34:05;41;32;
80639;PMS5003;69992;60.170;24.692;2024-01-15T03:36:31;35;31;
80639;PMS5003;69992;60.170;24.692;2024-01-15T03:38:56;35;31;
80639;PMS5003;69992;60.170;24.692;2024-01-15T03:41:22;38;32;
80639;PMS5003;69992;60.170;24.692;2024-01-15T03:43:47;38;31;
80639;PMS5003;69992;60.170;24.692;2024-01-15T03:46:12;40;37;
80639;PMS5003;69992;60.170;24.692;2024-01-15T03:48:38;36;32;
80639;PMS5003;69992;60.170;24.692;2024-01-15T03:51:04;36;33;
80639;PMS5003;69992;60.170;24.692;2024-01-15T03:53:29;45;39;
80639;PMS5003;69992;60.170;24.692;2024-01-15T03:55:55;38;35;
80639;PMS5003;69992;60.170;24.692;2024-01-15T03:58:20;40;33;
80639;PMS5003;69992;60.170;24.692;2024-01-15T04:00:46;36;28;
80639;PMS5003;69992;60.170;24.692;2024-01-15T04:03:11;40;31;
80639;PMS5003;69992;60.170;24.692;2024-01-15T04:05:38;35;35;
80639;PMS5003;69992;60.170;24.692;2024-01-15T04:08:02;35;29;
80639;PMS5003;69992;60.170;24.692;2024-01-15T04:10:27;37;36;
80639;PMS5003;69992;60.170;24.692;2024-01-15T04:12:52;37;35;
80639;PMS5003;69992;60.170;24.692;2024-01-15T04:15:18;36;31;
80639;PMS5003;69992;60.170;24.692;2024-01-15T04:17:44;41;31;
80639;PMS5003;69992;60.170;24.692;2024-01-15T04:20:10;32;28;
80639;PMS5003;69992;60.170;24.692;2024-01-15T04:22:35;32;29;
80639;PMS5003;69992;60.170;24.692;2024-01-15T04:25:01;35;28;
80639;PMS5003;69992;60.170;24.692;2024-01-15T04:27:26;40;29;
80639;PMS5003;69992;60.170;24.692;2024-01-15T04:29:51;42;31;
80639;PMS5003;69992;60.170;24.692;2024-01-15T04:32:17;39;29;
80639;PMS5003;69992;60.170;24.692;2024-01-15T04:34:42;36;36;
80639;PMS5003;69992;60.170;24.692;2024-01-15T04:37:08;35;29;
80639;PMS5003;69992;60.170;24.692;2024-01-15T04:39:34;40;32;
80639;PMS5003;69992;60.170;24.692;2024-01-15T04:41:59;36;29;
80639;PMS5003;69992;60.170;24.692;2024-01-15T04:44:25;35;32;
80639;PMS5003;69992;60.170;24.692;2024-01-15T04:46:50;40;31;
80639;PMS5003;69992;60.170;24.692;2024-01-15T04:49:15;35;33;
80639;PMS5003;69992;60.170;24.692;2024-01-15T04:51:41;41;32;
80639;PMS5003;69992;60.170;24.692;2024-01-15T04:54:07;36;32;
80639;PMS5003;69992;60.170;24.692;2024-01-15T04:56:32;32;30;
80639;PMS5003;69992;60.170;24.692;2024-01-15T04:58:58;40;31;
80639;PMS5003;69992;60.170;24.692;2024-01-15T05:01:24;37;31;
80639;PMS5003;69992;60.170;24.692;2024-01-15T05:03:52;37;32;
80639;PMS5003;69992;60.170;24.692;2024-01-15T05:06:15;35;31;
80639;PMS5003;69992;60.170;24.692;2024-01-15T05:08:40;32;24;
80639;PMS5003;69992;60.170;24.692;2024-01-15T05:11:06;39;36;
80639;PMS5003;69992;60.170;24.692;2024-01-15T05:13:31;39;38;
80639;PMS5003;69992;60.170;24.692;2024-01-15T05:15:57;43;35;
80639;PMS5003;69992;60.170;24.692;2024-01-15T05:18:22;46;38;
80639;PMS5003;69992;60.170;24.692;2024-01-15T05:20:48;39;32;
80639;PMS5003;69992;60.170;24.692;2024-01-15T05:23:13;36;35;
80639;PMS5003;69992;60.170;24.692;2024-01-15T05:25:39;32;28;
80639;PMS5003;69992;60.170;24.692;2024-01-15T05:28:08;37;27;
80639;PMS5003;69992;60.170;24.692;2024-01-15T05:30:30;39;31;
80639;PMS5003;69992;60.170;24.692;2024-01-15T05:32:55;33;30;
80639;PMS5003;69992;60.170;24.692;2024-01-15T05:35:21;40;31;
80639;PMS5003;69992;60.170;24.692;2024-01-15T05:37:46;40;38;
80639;PMS5003;69992;60.170;24.692;2024-01-15T05:40:11;41;32;
80639;PMS5003;69992;60.170;24.692;2024-01-15T05:42:37;44;38;
80639;PMS5003;69992;60.170;24.692;2024-01-15T05:45:03;43;31;
80639;PMS5003;69992;60.170;24.692;2024-01-15T05:47:28;41;30;
80639;PMS5003;69992;60.170;24.692;2024-01-15T05:49:54;44;35;
80639;PMS5003;69992;60.170;24.692;2024-01-15T05:52:19;40;35;
80639;PMS5003;69992;60.170;24.692;2024-01-15T05:54:44;41;34;
80639;PMS5003;69992;60.170;24.692;2024-01-15T05:57:10;32;31;
80639;PMS5003;69992;60.170;24.692;2024-01-15T05:59:35;39;31;
80639;PMS5003;69992;60.170;24.692;2024-01-15T06:02:00;35;32;
80639;PMS5003;69992;60.170;24.692;2024-01-15T06:04:26;25;22;
80639;PMS5003;69992;60.170;24.692;2024-01-15T06:06:51;40;32;
80639;PMS5003;69992;60.170;24.692;2024-01-15T06:09:16;30;27;
80639;PMS5003;69992;60.170;24.692;2024-01-15T06:11:42;34;28;
80639;PMS5003;69992;60.170;24.692;2024-01-15T06:14:07;36;32;
80639;PMS5003;69992;60.170;24.692;2024-01-15T06:16:33;27;26;
80639;PMS5003;69992;60.170;24.692;2024-01-15T06:18:58;43;34;
80639;PMS5003;69992;60.170;24.692;2024-01-15T06:21:24;34;28;
80639;PMS5003;69992;60.170;24.692;2024-01-15T06:23:49;33;26;
80639;PMS5003;69992;60.170;24.692;2024-01-15T06:26:15;38;32;
80639;PMS5003;69992;60.170;24.692;2024-01-15T06:28:40;34;30;
80639;PMS5003;69992;60.170;24.692;2024-01-15T06:31:06;31;30;
80639;PMS5003;69992;60.170;24.692;2024-01-15T06:33:34;34;23;
80639;PMS5003;69992;60.170;24.692;2024-01-15T06:35:56;26;23;
80639;PMS5003;69992;60.170;24.692;2024-01-15T06:38:23;41;29;
80639;PMS5003;69992;60.170;24.692;2024-01-15T06:40:47;27;19;
80639;PMS5003;69992;60.170;24.692;2024-01-15T06:43:13;29;22;
80639;PMS5003;69992;60.170;24.692;2024-01-15T06:45:39;33;25;
80639;PMS5003;69992;60.170;24.692;2024-01-15T06:48:04;22;21;
80639;PMS5003;69992;60.170;24.692;2024-01-15T06:50:30;21;19;
80639;PMS5003;69992;60.170;24.692;2024-01-15T06:52:55;29;22;
80639;PMS5003;69992;60.170;24.692;2024-01-15T06:55:20;22;19;
80639;PMS5003;69992;60.170;24.692;2024-01-15T06:57:46;30;26;
80639;PMS5003;69992;60.170;24.692;2024-01-15T07:00:12;25;22;
80639;PMS5003;69992;60.170;24.692;2024-01-15T07:02:37;21;19;
80639;PMS5003;69992;60.170;24.692;2024-01-15T07:05:02;23;19;
80639;PMS5003;69992;60.170;24.692;2024-01-15T07:07:28;21;19;
80639;PMS5003;69992;60.170;24.692;2024-01-15T07:09:57;30;23;
80639;PMS5003;69992;60.170;24.692;2024-01-15T07:12:19;22;17;
80639;PMS5003;69992;60.170;24.692;2024-01-15T07:14:44;24;20;
80639;PMS5003;69992;60.170;24.692;2024-01-15T07:17:09;23;21;
80639;PMS5003;69992;60.170;24.692;2024-01-15T07:19:35;21;19;
80639;PMS5003;69992;60.170;24.692;2024-01-15T07:22:00;18;17;
80639;PMS5003;69992;60.170;24.692;2024-01-15T07:24:26;21;19;
80639;PMS5003;69992;60.170;24.692;2024-01-15T07:26:51;18;17;
80639;PMS5003;69992;60.170;24.692;2024-01-15T07:29:16;17;15;
80639;PMS5003;69992;60.170;24.692;2024-01-15T07:31:47;20;17;
80639;PMS5003;69992;60.170;24.692;2024-01-15T07:34:10;18;16;
80639;PMS5003;69992;60.170;24.692;2024-01-15T07:36:33;16;14;
80639;PMS5003;69992;60.170;24.692;2024-01-15T07:38:58;21;16;
80639;PMS5003;69992;60.170;24.692;2024-01-15T07:41:23;18;17;
80639;PMS5003;69992;60.170;24.692;2024-01-15T07:43:49;16;14;
80639;PMS5003;69992;60.170;24.692;2024-01-15T07:46:15;21;20;
80639;PMS5003;69992;60.170;24.692;2024-01-15T07:48:41;20;16;
80639;PMS5003;69992;60.170;24.692;2024-01-15T07:51:07;17;16;
80639;PMS5003;69992;60.170;24.692;2024-01-15T07:53:32;14;13;
80639;PMS5003;69992;60.170;24.692;2024-01-15T07:55:57;14;14;
80639;PMS5003;69992;60.170;24.692;2024-01-15T07:58:23;14;14;
80639;PMS5003;69992;60.170;24.692;2024-01-15T08:00:48;17;16;
80639;PMS5003;69992;60.170;24.692;2024-01-15T08:03:14;20;14;
80639;PMS5003;69992;60.170;24.692;2024-01-15T08:05:40;11;9;
80639;PMS5003;69992;60.170;24.692;2024-01-15T08:08:05;17;13;
80639;PMS5003;69992;60.170;24.692;2024-01-15T08:10:34;16;13;
80639;PMS5003;69992;60.170;24.692;2024-01-15T08:12:56;16;16;
80639;PMS5003;69992;60.170;24.692;2024-01-15T08:15:21;12;12;
80639;PMS5003;69992;60.170;24.692;2024-01-15T08:17:46;9;9;
80639;PMS5003;69992;60.170;24.692;2024-01-15T08:20:12;14;13;
80639;PMS5003;69992;60.170;24.692;2024-01-15T08:22:41;12;10;
80639;PMS5003;69992;60.170;24.692;2024-01-15T08:25:03;12;12;
80639;PMS5003;69992;60.170;24.692;2024-01-15T08:27:28;14;13;
80639;PMS5003;69992;60.170;24.692;2024-01-15T08:29:53;12;10;
80639;PMS5003;69992;60.170;24.692;2024-01-15T08:32:18;13;13;
80639;PMS5003;69992;60.170;24.692;2024-01-15T08:34:47;10;9;
80639;PMS5003;69992;60.170;24.692;2024-01-15T08:37:10;13;12;
80639;PMS5003;69992;60.170;24.692;2024-01-15T08:39:35;9;8;
80639;PMS5003;69992;60.170;24.692;2024-01-15T08:42:01;12;10;
80639;PMS5003;69992;60.170;24.692;2024-01-15T08:44:26;10;10;
80639;PMS5003;69992;60.170;24.692;2024-01-15T08:46:51;12;12;
80639;PMS5003;69992;60.170;24.692;2024-01-15T08:49:16;10;9;
80639;PMS5003;69992;60.170;24.692;2024-01-15T08:51:41;10;10;
80639;PMS5003;69992;60.170;24.692;2024-01-15T08:54:06;10;9;
80639;PMS5003;69992;60.170;24.692;2024-01-15T08:56:32;9;9;
80639;PMS5003;69992;60.170;24.692;2024-01-15T08:59:00;10;10;
80639;PMS5003;69992;60.170;24.692;2024-01-15T09:01:23;8;8;
80639;PMS5003;69992;60.170;24.692;2024-01-15T09:03:48;8;8;
80639;PMS5003;69992;60.170;24.692;2024-01-15T09:06:13;10;10;
80639;PMS5003;69992;60.170;24.692;2024-01-15T09:08:39;8;6;
80639;PMS5003;69992;60.170;24.692;2024-01-15T09:11:04;9;7;
80639;PMS5003;69992;60.170;24.692;2024-01-15T09:13:29;10;9;
80639;PMS5003;69992;60.170;24.692;2024-01-15T09:15:55;13;9;
80639;PMS5003;69992;60.170;24.692;2024-01-15T09:18:21;72;55;
80639;PMS5003;69992;60.170;24.692;2024-01-15T09:20:46;20;14;
80639;PMS5003;69992;60.170;24.692;2024-01-15T09:23:11;20;18;
80639;PMS5003;69992;60.170;24.692;2024-01-15T09:25:36;10;10;
80639;PMS5003;69992;60.170;24.692;2024-01-15T09:28:01;6;6;
80639;PMS5003;69992;60.170;24.692;2024-01-15T09:30:27;12;9;
80639;PMS5003;69992;60.170;24.692;2024-01-15T09:32:52;8;8;
80639;PMS5003;69992;60.170;24.692;2024-01-15T09:35:17;13;10;
80639;PMS5003;69992;60.170;24.692;2024-01-15T09:37:42;8;8;
80639;PMS5003;69992;60.170;24.692;2024-01-15T09:40:08;9;8;
80639;PMS5003;69992;60.170;24.692;2024-01-15T09:42:38;10;10;
80639;PMS5003;69992;60.170;24.692;2024-01-15T09:44:58;6;6;
80639;PMS5003;69992;60.170;24.692;2024-01-15T09:47:23;10;8;
80639;PMS5003;69992;60.170;24.692;2024-01-15T09:49:48;8;6;
80639;PMS5003;69992;60.170;24.692;2024-01-15T09:52:14;8;6;
80639;PMS5003;69992;60.170;24.692;2024-01-15T09:54:38;6;6;
80639;PMS5003;69992;60.170;24.692;2024-01-15T09:57:04;9;9;
80639;PMS5003;69992;60.170;24.692;2024-01-15T09:59:33;12;10;
80639;PMS5003;69992;60.170;24.692;2024-01-15T10:01:55;12;9;
80639;PMS5003;69992;60.170;24.692;2024-01-15T10:04:21;8;6;
80639;PMS5003;69992;60.170;24.692;2024-01-15T10:06:46;8;8;
80639;PMS5003;69992;60.170;24.692;2024-01-15T10:09:12;8;8;
80639;PMS5003;69992;60.170;24.692;2024-01-15T10:11:40;10;9;
80639;PMS5003;69992;60.170;24.692;2024-01-15T10:14:02;5;5;
80639;PMS5003;69992;60.170;24.692;2024-01-15T10:16:27;8;6;
80639;PMS5003;69992;60.170;24.692;2024-01-15T10:18:53;6;5;
80639;PMS5003;69992;60.170;24.692;2024-01-15T10:21:18;4;4;
80639;PMS5003;69992;60.170;24.692;2024-01-15T10:23:43;6;5;
80639;PMS5003;69992;60.170;24.692;2024-01-15T10:26:08;10;9;
80639;PMS5003;69992;60.170;24.692;2024-01-15T10:28:34;4;4;
80639;PMS5003;69992;60.170;24.692;2024-01-15T10:31:00;5;5;
80639;PMS5003;69992;60.170;24.692;2024-01-15T10:33:25;6;6;
80639;PMS5003;69992;60.170;24.692;2024-01-15T10:35:50;8;6;
80639;PMS5003;69992;60.170;24.692;2024-01-15T10:38:15;5;5;
80639;PMS5003;69992;60.170;24.692;2024-01-15T10:40:40;8;6;
80639;PMS5003;69992;60.170;24.692;2024-01-15T10:43:05;8;6;
80639;PMS5003;69992;60.170;24.692;2024-01-15T10:45:30;6;6;
80639;PMS5003;69992;60.170;24.692;2024-01-15T10:47:56;10;8;
80639;PMS5003;69992;60.170;24.692;2024-01-15T10:50:21;8;6;
80639;PMS5003;69992;60.170;24.692;2024-01-15T10:52:46;10;8;
80639;PMS5003;69992;60.170;24.692;2024-01-15T10:55:11;8;6;
80639;PMS5003;69992;60.170;24.692;2024-01-15T10:57:37;6;5;
80639;PMS5003;69992;60.170;24.692;2024-01-15T11:00:02;6;6;
80639;PMS5003;69992;60.170;24.692;2024-01-15T11:02:27;8;6;
80639;PMS5003;69992;60.170;24.692;2024-01-15T11:04:52;9;8;
80639;PMS5003;69992;60.170;24.692;2024-01-15T11:07:17;9;8;
80639;PMS5003;69992;60.170;24.692;2024-01-15T11:09:43;8;8;
80639;PMS5003;69992;60.170;24.692;2024-01-15T11:12:13;8;8;
80639;PMS5003;69992;60.170;24.692;2024-01-15T11:14:33;6;6;
80639;PMS5003;69992;60.170;24.692;2024-01-15T11:16:58;5;5;
80639;PMS5003;69992;60.170;24.692;2024-01-15T11:19:23;5;5;
80639;PMS5003;69992;60.170;24.692;2024-01-15T11:21:49;5;5;
80639;PMS5003;69992;60.170;24.692;2024-01-15T11:26:44;5;5;
80639;PMS5003;69992;60.170;24.692;2024-01-15T11:29:05;5;5;
80639;PMS5003;69992;60.170;24.692;2024-01-15T11:31:56;9;8;
80639;PMS5003;69992;60.170;24.692;2024-01-15T11:33:55;6;6;
80639;PMS5003;69992;60.170;24.692;2024-01-15T11:36:20;6;6;
80639;PMS5003;69992;60.170;24.692;2024-01-15T11:38:46;4;2;
80639;PMS5003;69992;60.170;24.692;2024-01-15T11:41:15;6;6;
80639;PMS5003;69992;60.170;24.692;2024-01-15T11:43:37;9;6;
80639;PMS5003;69992;60.170;24.692;2024-01-15T11:46:02;5;4;
80639;PMS5003;69992;60.170;24.692;2024-01-15T11:48:27;5;4;
80639;PMS5003;69992;60.170;24.692;2024-01-15T11:50:53;5;5;
80639;PMS5003;69992;60.170;24.692;2024-01-15T11:53:26;6;5;
80639;PMS5003;69992;60.170;24.692;2024-01-15T11:55:43;6;6;
80639;PMS5003;69992;60.170;24.692;2024-01-15T11:58:08;6;5;
80639;PMS5003;69992;60.170;24.692;2024-01-15T12:00:33;6;5;
80639;PMS5003;69992;60.170;24.692;2024-01-15T12:02:58;9;8;
80639;PMS5003;69992;60.170;24.692;2024-01-15T12:05:27;4;4;
80639;PMS5003;69992;60.170;24.692;2024-01-15T12:07:49;6;5;
80639;PMS5003;69992;60.170;24.692;2024-01-15T12:10:15;9;8;
80639;PMS5003;69992;60.170;24.692;2024-01-15T12:12:45;6;5;
80639;PMS5003;69992;60.170;24.692;2024-01-15T12:15:05;6;6;
80639;PMS5003;69992;60.170;24.692;2024-01-15T12:17:34;4;4;
80639;PMS5003;69992;60.170;24.692;2024-01-15T12:19:56;6;5;
80639;PMS5003;69992;60.170;24.692;2024-01-15T12:22:20;5;5;
80639;PMS5003;69992;60.170;24.692;2024-01-15T12:24:45;6;4;
80639;PMS5003;69992;60.170;24.692;2024-01-15T12:27:11;6;6;
80639;PMS5003;69992;60.170;24.692;2024-01-15T12:29:38;4;4;
80639;PMS5003;69992;60.170;24.692;2024-01-15T12:32:01;5;5;
80639;PMS5003;69992;60.170;24.692;2024-01-15T12:34:28;9;8;
80639;PMS5003;69992;60.170;24.692;2024-01-15T12:36:52;8;6;
80639;PMS5003;69992;60.170;24.692;2024-01-15T12:39:17;4;2;
80639;PMS5003;69992;60.170;24.692;2024-01-15T12:41:45;8;6;
80639;PMS5003;69992;60.170;24.692;2024-01-15T12:44:07;5;4;
80639;PMS5003;69992;60.170;24.692;2024-01-15T12:46:33;8;5;
80639;PMS5003;69992;60.170;24.692;2024-01-15T12:48:58;4;4;
80639;PMS5003;69992;60.170;24.692;2024-01-15T12:51:24;5;4;
80639;PMS5003;69992;60.170;24.692;2024-01-15T12:53:48;6;6;
80639;PMS5003;69992;60.170;24.692;2024-01-15T12:56:14;8;5;
80639;PMS5003;69992;60.170;24.692;2024-01-15T12:58:39;6;5;
80639;PMS5003;69992;60.170;24.692;2024-01-15T13:01:05;8;5;
80639;PMS5003;69992;60.170;24.692;2024-01-15T13:03:29;8;6;
80639;PMS5003;69992;60.170;24.692;2024-01-15T13:05:55;12;8;
80639;PMS5003;69992;60.170;24.692;2024-01-15T13:08:20;6;5;
80639;PMS5003;69992;60.170;24.692;2024-01-15T13:10:45;8;5;
80639;PMS5003;69992;60.170;24.692;2024-01-15T13:13:10;12;8;
80639;PMS5003;69992;60.170;24.692;2024-01-15T13:15:39;6;5;
80639;PMS5003;69992;60.170;24.692;2024-01-15T13:18:01;6;5;
80639;PMS5003;69992;60.170;24.692;2024-01-15T13:20:26;5;4;
80639;PMS5003;69992;60.170;24.692;2024-01-15T13:22:52;5;5;
80639;PMS5003;69992;60.170;24.692;2024-01-15T13:25:17;6;6;
80639;PMS5003;69992;60.170;24.692;2024-01-15T13:27:42;8;7;
80639;PMS5003;69992;60.170;24.692;2024-01-15T13:30:08;8;8;
80639;PMS5003;69992;60.170;24.692;2024-01-15T13:32:33;7;5;
80639;PMS5003;69992;60.170;24.692;2024-01-15T13:34:59;8;8;
80639;PMS5003;69992;60.170;24.692;2024-01-15T13:37:23;8;8;
80639;PMS5003;69992;60.170;24.692;2024-01-15T13:39:48;8;7;
80639;PMS5003;69992;60.170;24.692;2024-01-15T13:42:14;7;7;
80639;PMS5003;69992;60.170;24.692;2024-01-15T13:44:39;7;7;
80639;PMS5003;69992;60.170;24.692;2024-01-15T13:47:05;5;5;
80639;PMS5003;69992;60.170;24.692;2024-01-15T13:49:30;8;7;
80639;PMS5003;69992;60.170;24.692;2024-01-15T13:51:55;5;5;
80639;PMS5003;69992;60.170;24.692;2024-01-15T13:54:23;9;7;
80639;PMS5003;69992;60.170;24.692;2024-01-15T13:56:45;5;4;
80639;PMS5003;69992;60.170;24.692;2024-01-15T13:59:11;9;8;
80639;PMS5003;69992;60.170;24.692;2024-01-15T14:01:36;8;7;
80639;PMS5003;69992;60.170;24.692;2024-01-15T14:04:01;7;7;
80639;PMS5003;69992;60.170;24.692;2024-01-15T14:06:28;7;5;
80639;PMS5003;69992;60.170;24.692;2024-01-15T14:08:52;8;7;
80639;PMS5003;69992;60.170;24.692;2024-01-15T14:11:17;5;4;
80639;PMS5003;69992;60.170;24.692;2024-01-15T14:13:42;8;5;
80639;PMS5003;69992;60.170;24.692;2024-01-15T14:16:07;5;5;
80639;PMS5003;69992;60.170;24.692;2024-01-15T14:18:33;5;5;
80639;PMS5003;69992;60.170;24.692;2024-01-15T14:20:58;10;7;
80639;PMS5003;69992;60.170;24.692;2024-01-15T14:23:23;8;7;
80639;PMS5003;69992;60.170;24.692;2024-01-15T14:25:49;5;4;
80639;PMS5003;69992;60.170;24.692;2024-01-15T14:28:14;5;5;
80639;PMS5003;69992;60.170;24.692;2024-01-15T14:30:40;14;10;
80639;PMS5003;69992;60.170;24.692;2024-01-15T14:33:05;5;5;
80639;PMS5003;69992;60.170;24.692;2024-01-15T14:35:30;8;7;
80639;PMS5003;69992;60.170;24.692;2024-01-15T14:37:56;7;5;
80639;PMS5003;69992;60.170;24.692;2024-01-15T14:40:21;5;5;
80639;PMS5003;69992;60.170;24.692;2024-01-15T14:42:46;8;7;
80639;PMS5003;69992;60.170;24.692;2024-01-15T14:45:11;5;5;
80639;PMS5003;69992;60.170;24.692;2024-01-15T14:47:37;8;8;
80639;PMS5003;69992;60.170;24.692;2024-01-15T14:50:02;5;4;
80639;PMS5003;69992;60.170;24.692;2024-01-15T14:52:28;11;8;
80639;PMS5003;69992;60.170;24.692;2024-01-15T14:54:53;8;8;
80639;PMS5003;69992;60.170;24.692;2024-01-15T14:57:18;7;5;
80639;PMS5003;69992;60.170;24.692;2024-01-15T14:59:44;10;7;
80639;PMS5003;69992;60.170;24.692;2024-01-15T15:02:09;7;7;
80639;PMS5003;69992;60.170;24.692;2024-01-15T15:04:34;8;7;
80639;PMS5003;69992;60.170;24.692;2024-01-15T15:07:00;8;8;
80639;PMS5003;69992;60.170;24.692;2024-01-15T15:09:25;11;10;
80639;PMS5003;69992;60.170;24.692;2024-01-15T15:11:50;8;7;
80639;PMS5003;69992;60.170;24.692;2024-01-15T15:14:15;11;8;
80639;PMS5003;69992;60.170;24.692;2024-01-15T15:16:44;11;10;
80639;PMS5003;69992;60.170;24.692;2024-01-15T15:19:07;10;5;
80639;PMS5003;69992;60.170;24.692;2024-01-15T15:21:32;7;7;
80639;PMS5003;69992;60.170;24.692;2024-01-15T15:24:01;8;7;
80639;PMS5003;69992;60.170;24.692;2024-01-15T15:26:23;8;8;
80639;PMS5003;69992;60.170;24.692;2024-01-15T15:28:48;7;7;
80639;PMS5003;69992;60.170;24.692;2024-01-15T15:31:14;8;7;
80639;PMS5003;69992;60.170;24.692;2024-01-15T15:33:39;11;10;
80639;PMS5003;69992;60.170;24.692;2024-01-15T15:36:05;7;7;
80639;PMS5003;69992;60.170;24.692;2024-01-15T15:38:30;5;5;
80639;PMS5003;69992;60.170;24.692;2024-01-15T15:40:55;8;7;
80639;PMS5003;69992;60.170;24.692;2024-01-15T15:43:21;5;5;
80639;PMS5003;69992;60.170;24.692;2024-01-15T15:45:46;8;8;
80639;PMS5003;69992;60.170;24.692;2024-01-15T15:48:11;8;8;
80639;PMS5003;69992;60.170;24.692;2024-01-15T15:50:37;10;7;
80639;PMS5003;69992;60.170;24.692;2024-01-15T15:53:02;10;7;
80639;PMS5003;69992;60.170;24.692;2024-01-15T15:55:27;8;7;
80639;PMS5003;69992;60.170;24.692;2024-01-15T15:57:52;8;7;
80639;PMS5003;69992;60.170;24.692;2024-01-15T16:00:18;8;7;
80639;PMS5003;69992;60.170;24.692;2024-01-15T16:02:44;10;10;